createdAt,value
2022-12-06T08:44:23.092Z,25.79
2022-12-06T08:46:52.279Z,27.35
2022-12-06T08:49:20.338Z,27.21
2022-12-06T08:51:48.503Z,29.07
2022-12-06T08:54:19.002Z,28.80
2022-12-06T08:56:48.717Z,28.46
2022-12-06T08:59:17.319Z,28.54
2022-12-06T09:01:45.983Z,28.83
2022-12-06T09:04:14.205Z,29.26
2022-12-06T09:06:44.136Z,29.54
2022-12-06T09:09:14.448Z,29.84
2022-12-06T09:11:43.883Z,29.68
2022-12-06T09:14:21.012Z,29.83
2022-12-06T09:16:52.476Z,29.27
2022-12-06T09:19:20.851Z,28.88
2022-12-06T09:21:48.985Z,29.35
2022-12-06T09:24:18.498Z,28.73
2022-12-06T09:26:47.139Z,28.38
2022-12-06T09:29:16.225Z,29.82
2022-12-06T09:31:44.229Z,28.06
2022-12-06T09:34:12.862Z,29.61
2022-12-06T09:37:10.705Z,29.09
2022-12-06T09:39:49.439Z,28.82
2022-12-06T09:42:35.812Z,28.20
2022-12-06T09:45:22.127Z,29.24
2022-12-06T09:48:18.992Z,28.92
2022-12-06T09:51:16.060Z,28.73
2022-12-06T09:54:02.738Z,28.67
2022-12-06T09:56:35.813Z,27.78
2022-12-06T09:59:08.966Z,28.49
2022-12-06T10:01:58.862Z,28.86
2022-12-06T10:05:12.250Z,28.83
2022-12-06T10:08:13.628Z,29.23
2022-12-06T10:10:44.585Z,28.35
2022-12-06T10:13:27.836Z,28.25
2022-12-06T10:15:58.901Z,28.08
2022-12-06T10:18:56.581Z,28.87
2022-12-06T10:21:56.736Z,29.86
2022-12-06T10:24:46.303Z,28.16
2022-12-06T10:27:37.177Z,28.54
2022-12-06T10:30:11.566Z,27.68
2022-12-06T10:32:48.181Z,27.12
2022-12-06T10:35:19.803Z,28.62
2022-12-06T10:38:06.732Z,31.01
2022-12-06T10:40:46.681Z,29.14
2022-12-06T10:43:44.522Z,28.78
2022-12-06T10:46:43.343Z,28.89
2022-12-06T10:49:32.974Z,28.09
2022-12-06T10:52:18.449Z,28.79
2022-12-06T10:54:46.276Z,27.74
2022-12-06T10:57:22.851Z,28.52
2022-12-06T11:00:14.958Z,28.12
2022-12-06T11:03:05.546Z,28.07
2022-12-06T11:05:42.287Z,27.82
2022-12-06T11:08:26.228Z,29.76
2022-12-06T11:10:56.464Z,29.32
2022-12-06T11:13:42.630Z,27.75
2022-12-06T11:16:10.587Z,27.05
2022-12-06T11:18:39.965Z,27.83
2022-12-06T11:21:26.530Z,27.09
2022-12-06T11:24:00.850Z,26.86
2022-12-06T11:27:15.976Z,26.74
2022-12-06T11:29:47.794Z,27.30
2022-12-06T11:32:17.061Z,27.10
2022-12-06T11:34:52.040Z,26.98
2022-12-06T11:37:44.127Z,26.68
2022-12-06T11:40:23.752Z,27.31
2022-12-06T11:42:52.646Z,27.27
2022-12-06T11:45:31.158Z,27.52
2022-12-06T11:48:02.816Z,27.97
2022-12-06T11:50:32.693Z,26.56
2022-12-06T11:53:05.665Z,27.86
2022-12-06T11:55:43.093Z,27.97
2022-12-06T11:58:10.915Z,28.20
2022-12-06T12:00:59.186Z,27.81
2022-12-06T12:03:30.083Z,26.73
2022-12-06T12:06:17.030Z,25.69
2022-12-06T12:08:57.056Z,23.97
2022-12-06T12:11:28.699Z,23.21
2022-12-06T12:14:01.847Z,24.13
2022-12-06T12:16:35.182Z,24.83
2022-12-06T12:19:07.377Z,25.10
2022-12-06T12:21:41.814Z,25.72
2022-12-06T12:27:40.542Z,24.75
2022-12-06T12:30:20.461Z,24.98
2022-12-06T12:32:51.094Z,24.59
2022-12-06T12:35:21.816Z,24.28
2022-12-06T12:37:52.722Z,24.89
2022-12-06T12:40:30.965Z,24.60
2022-12-06T12:43:21.003Z,24.77
2022-12-06T12:46:07.928Z,25.89
2022-12-06T12:48:37.545Z,26.15
2022-12-06T12:51:21.437Z,26.21
2022-12-06T12:54:01.498Z,26.60
2022-12-06T12:56:33.632Z,26.50
2022-12-06T12:59:06.505Z,26.61
2022-12-06T13:01:40.683Z,27.74
2022-12-06T13:04:20.681Z,26.73
2022-12-06T13:06:58.771Z,26.73
2022-12-06T13:09:30.237Z,27.42
2022-12-06T13:12:05.599Z,27.11
2022-12-06T13:14:36.042Z,27.62
2022-12-06T13:17:07.931Z,26.08
2022-12-06T13:19:40.921Z,26.00
2022-12-06T13:22:17.611Z,25.30
2022-12-06T13:24:50.286Z,25.99
2022-12-06T13:27:21.506Z,25.79
2022-12-06T13:29:58.158Z,25.68
2022-12-06T13:32:41.750Z,25.46
2022-12-06T13:35:28.644Z,24.89
2022-12-06T13:38:24.347Z,24.96
2022-12-06T13:40:59.008Z,25.29
2022-12-06T13:43:26.953Z,25.99
2022-12-06T13:46:15.990Z,26.68
2022-12-06T13:48:56.797Z,28.34
2022-12-06T13:51:30.706Z,28.01
2022-12-06T13:54:18.590Z,28.01
2022-12-06T13:56:46.701Z,28.95
2022-12-06T13:59:15.569Z,28.16
2022-12-06T14:01:54.947Z,27.84
2022-12-06T14:09:46.489Z,27.90
2022-12-06T14:12:24.146Z,28.96
2022-12-06T14:15:00.618Z,30.13
2022-12-06T14:18:03.133Z,29.79
2022-12-06T14:20:33.812Z,30.60
2022-12-06T14:23:01.769Z,32.45
2022-12-06T14:25:31.382Z,31.15
2022-12-06T14:28:06.626Z,29.43
2022-12-06T14:30:34.593Z,29.79
2022-12-06T14:33:02.519Z,28.97
2022-12-06T14:35:38.413Z,29.09
2022-12-06T14:38:24.561Z,29.20
2022-12-06T14:41:11.621Z,29.20
2022-12-06T14:43:42.191Z,28.29
2022-12-06T14:46:13.759Z,28.84
2022-12-06T14:49:00.196Z,28.93
2022-12-06T14:51:41.167Z,31.51
2022-12-06T14:54:27.490Z,29.12
2022-12-06T14:56:55.503Z,29.09
2022-12-06T15:00:03.005Z,29.10
2022-12-06T15:02:28.361Z,26.33
2022-12-06T15:04:56.270Z,26.99
2022-12-06T15:07:42.959Z,26.06
2022-12-06T15:10:25.915Z,25.83
2022-12-06T15:12:56.688Z,27.59
2022-12-06T15:15:38.561Z,26.22
2022-12-06T15:18:13.889Z,26.46
2022-12-06T15:20:41.801Z,26.28
2022-12-06T15:23:51.232Z,26.99
2022-12-06T15:26:20.590Z,26.65
2022-12-06T15:28:49.176Z,25.47
2022-12-06T15:31:23.097Z,26.46
2022-12-06T15:33:51.004Z,25.94
2022-12-06T15:36:24.419Z,25.81
2022-12-06T15:38:52.389Z,25.04
2022-12-06T15:41:23.434Z,24.99
2022-12-06T15:43:52.598Z,25.48
2022-12-06T15:46:26.549Z,26.83
2022-12-06T15:48:55.877Z,26.25
2022-12-06T15:51:26.564Z,25.61
2022-12-06T15:53:56.539Z,26.07
2022-12-06T15:56:29.123Z,25.91
2022-12-06T15:58:57.093Z,27.26
2022-12-06T16:01:27.949Z,27.46
2022-12-06T16:03:56.890Z,27.55
2022-12-06T16:06:26.443Z,27.33
2022-12-06T16:08:54.381Z,28.39
2022-12-06T16:11:25.608Z,28.88
2022-12-06T16:13:53.580Z,28.70
2022-12-06T16:16:22.784Z,27.86
2022-12-06T16:18:51.147Z,30.00
2022-12-06T16:21:51.926Z,29.87
2022-12-06T16:24:20.954Z,31.25
2022-12-06T16:26:49.212Z,30.19
2022-12-06T16:29:20.844Z,30.91
2022-12-06T16:31:49.542Z,30.57
2022-12-06T16:34:17.791Z,31.09
2022-12-06T16:37:03.602Z,31.39
2022-12-06T16:39:33.931Z,32.89
2022-12-06T16:42:04.412Z,33.15
2022-12-06T16:44:32.521Z,32.47
2022-12-06T16:47:00.860Z,32.15
2022-12-06T16:49:48.003Z,30.26
2022-12-06T16:52:17.388Z,31.01
2022-12-06T16:54:45.320Z,31.43
2022-12-06T16:57:14.403Z,31.54
2022-12-06T16:59:43.116Z,31.64
2022-12-06T17:02:27.382Z,32.31
2022-12-06T17:04:57.311Z,32.23
2022-12-06T17:07:25.208Z,31.96
2022-12-06T17:09:53.785Z,31.35
2022-12-06T17:12:21.731Z,30.90
2022-12-06T17:14:49.798Z,30.85
2022-12-06T17:17:20.705Z,30.46
2022-12-06T17:19:49.625Z,32.32
2022-12-06T17:22:18.710Z,31.91
2022-12-06T17:24:46.647Z,30.72
2022-12-06T17:27:16.045Z,30.41
2022-12-06T17:29:44.156Z,30.69
2022-12-06T17:32:12.571Z,30.26
2022-12-06T17:34:40.561Z,30.89
2022-12-06T17:37:08.809Z,30.32
2022-12-06T17:39:36.668Z,30.90
2022-12-06T17:42:23.114Z,31.34
2022-12-06T17:44:51.759Z,30.70
2022-12-06T17:47:20.086Z,31.93
2022-12-06T17:49:48.144Z,32.97
2022-12-06T17:52:16.254Z,38.01
2022-12-06T17:54:44.699Z,41.47
2022-12-06T17:57:17.682Z,36.07
2022-12-06T17:59:47.363Z,37.40
2022-12-06T18:02:19.277Z,39.06
2022-12-06T18:04:48.050Z,39.25
2022-12-06T18:07:17.384Z,39.07
2022-12-06T18:09:45.946Z,38.99
2022-12-06T18:12:15.192Z,42.29
2022-12-06T18:14:43.713Z,49.53
2022-12-06T18:17:12.149Z,56.48
2022-12-06T18:19:40.824Z,52.81
2022-12-06T18:22:08.958Z,49.39
2022-12-06T18:24:36.984Z,57.96
2022-12-06T18:27:06.028Z,63.07
2022-12-06T18:29:34.957Z,49.01
2022-12-06T18:32:03.251Z,46.74
2022-12-06T18:34:31.449Z,42.32
2022-12-06T18:36:59.617Z,38.35
2022-12-06T18:39:28.096Z,36.16
2022-12-06T18:41:56.240Z,38.01
2022-12-06T18:44:25.618Z,38.02
2022-12-06T18:46:53.645Z,39.38
2022-12-06T18:49:21.921Z,39.97
2022-12-06T18:51:49.925Z,41.50
2022-12-06T18:54:17.916Z,41.15
2022-12-06T18:56:46.113Z,39.79
2022-12-06T18:59:13.997Z,38.61
2022-12-06T19:01:42.143Z,36.98
2022-12-06T19:04:14.381Z,36.25
2022-12-06T19:06:43.515Z,38.08
2022-12-06T19:09:14.131Z,42.31
2022-12-06T19:11:44.488Z,36.53
2022-12-06T19:14:13.976Z,35.56
2022-12-06T19:16:50.043Z,36.28
2022-12-06T19:19:24.238Z,35.20
2022-12-06T19:21:55.285Z,35.09
2022-12-06T19:24:25.041Z,35.57
2022-12-06T19:26:55.134Z,35.46
2022-12-06T19:29:23.103Z,34.66
2022-12-06T19:31:51.145Z,34.73
2022-12-06T19:34:25.174Z,35.68
2022-12-06T19:36:54.929Z,36.11
2022-12-06T19:39:24.055Z,35.00
2022-12-06T19:42:10.480Z,36.13
2022-12-06T19:44:38.494Z,36.45
2022-12-06T19:47:06.476Z,36.99
2022-12-06T19:49:34.774Z,36.49
2022-12-06T19:52:02.721Z,35.08
2022-12-06T19:54:32.701Z,33.43
2022-12-06T19:57:01.169Z,34.76
2022-12-06T19:59:32.529Z,34.61
2022-12-06T20:02:00.790Z,33.84
2022-12-06T20:04:31.591Z,34.71
2022-12-06T20:06:59.997Z,34.01
2022-12-06T20:09:29.626Z,34.09
2022-12-06T20:12:01.929Z,34.45
2022-12-06T20:14:42.978Z,36.01
2022-12-06T20:17:17.560Z,37.93
2022-12-06T20:19:46.450Z,36.84
2022-12-06T20:22:16.604Z,34.72
2022-12-06T20:24:44.932Z,35.99
2022-12-06T20:27:12.849Z,35.02
2022-12-06T20:29:40.814Z,35.49
2022-12-06T20:32:10.082Z,41.57
2022-12-06T20:34:38.579Z,39.27
2022-12-06T20:37:07.043Z,33.85
2022-12-06T20:39:35.912Z,33.43
2022-12-06T20:42:06.304Z,33.99
2022-12-06T20:44:34.833Z,33.53
2022-12-06T20:47:02.850Z,34.06
2022-12-06T20:49:30.949Z,34.38
2022-12-06T20:52:01.965Z,34.52
2022-12-06T20:54:30.056Z,35.21
2022-12-06T20:56:58.495Z,36.01
2022-12-06T20:59:26.995Z,35.23
2022-12-06T21:01:55.074Z,37.07
2022-12-06T21:04:23.108Z,36.87
2022-12-06T21:06:51.010Z,36.98
2022-12-06T21:09:18.959Z,36.96
2022-12-06T21:11:47.356Z,36.27
2022-12-06T21:14:16.872Z,36.11
2022-12-06T21:16:44.901Z,34.84
2022-12-06T21:19:15.867Z,35.22
2022-12-06T21:21:53.243Z,35.45
2022-12-06T21:24:22.334Z,36.11
2022-12-06T21:26:50.315Z,36.14
2022-12-06T21:29:26.400Z,35.56
2022-12-06T21:32:00.350Z,36.83
2022-12-06T21:34:28.287Z,37.84
2022-12-06T21:36:56.151Z,38.94
2022-12-06T21:39:24.048Z,38.44
2022-12-06T21:41:53.080Z,37.25
2022-12-06T21:44:21.000Z,37.35
2022-12-06T21:46:52.825Z,36.04
2022-12-06T21:49:20.817Z,35.17
2022-12-06T21:51:48.728Z,34.34
2022-12-06T21:54:16.857Z,32.59
2022-12-06T21:56:45.280Z,31.82
2022-12-06T21:59:13.330Z,31.40
2022-12-06T22:01:41.268Z,30.94
2022-12-06T22:04:09.264Z,30.59
2022-12-06T22:06:37.992Z,28.63
2022-12-06T22:09:06.535Z,29.15
2022-12-06T22:11:34.946Z,29.27
2022-12-06T22:14:04.887Z,28.90
2022-12-06T22:16:33.018Z,28.83
2022-12-06T22:19:01.060Z,29.41
2022-12-06T22:21:30.961Z,29.74
2022-12-06T22:23:59.328Z,29.50
2022-12-06T22:26:29.722Z,29.58
2022-12-06T22:28:59.411Z,28.80
2022-12-06T22:31:33.441Z,29.20
2022-12-06T22:34:02.421Z,29.05
2022-12-06T22:36:31.410Z,29.61
2022-12-06T22:39:03.077Z,28.60
2022-12-06T22:41:32.335Z,29.01
2022-12-06T22:44:04.055Z,28.48
2022-12-06T22:46:33.789Z,28.29
2022-12-06T22:49:02.814Z,28.63
2022-12-06T22:51:33.784Z,28.78
2022-12-06T22:54:05.338Z,28.53
2022-12-06T22:56:33.955Z,28.25
2022-12-06T22:59:02.803Z,27.90
2022-12-06T23:01:33.786Z,28.03
2022-12-06T23:04:04.529Z,28.71
2022-12-06T23:06:34.576Z,27.46
2022-12-06T23:09:04.105Z,27.69
2022-12-06T23:11:34.226Z,27.67
2022-12-06T23:14:04.354Z,27.29
2022-12-06T23:16:33.056Z,28.23
2022-12-06T23:19:02.804Z,28.47
2022-12-06T23:21:33.526Z,27.99
2022-12-06T23:24:04.256Z,27.17
2022-12-06T23:26:35.782Z,27.26
2022-12-06T23:29:04.655Z,27.03
2022-12-06T23:31:35.596Z,26.69
2022-12-06T23:34:12.423Z,26.13
2022-12-06T23:36:40.377Z,26.21
2022-12-06T23:39:08.691Z,26.42
2022-12-06T23:41:37.139Z,27.07
2022-12-06T23:44:06.174Z,26.33
2022-12-06T23:46:36.784Z,26.16
2022-12-06T23:49:06.563Z,26.52
2022-12-06T23:51:37.181Z,25.70
2022-12-06T23:54:07.698Z,26.51
2022-12-06T23:56:38.852Z,26.36
2022-12-06T23:59:08.844Z,25.84
